sensor_id;sensor_type;location;lat;lon;timestamp;P1;durP1;ratioP1;P2;durP2;ratioP2
8881;SDS011;4477;48.736;9.176;2023-11-19T00:01:09;4.87;;;3.90;;
8881;SDS011;4477;48.736;9.176;2023-11-19T00:03:36;4.40;;;4.00;;
8881;SDS011;4477;48.736;9.176;2023-11-19T00:06:03;5.93;;;4.30;;
8881;SDS011;4477;48.736;9.176;2023-11-19T00:08:30;6.27;;;4.30;;
8881;SDS011;4477;48.736;9.176;2023-11-19T00:10:58;5.20;;;4.10;;
8881;SDS011;4477;48.736;9.176;2023-11-19T00:13:26;7.27;;;4.23;;
8881;SDS011;4477;48.736;9.176;2023-11-19T00:15:53;5.30;;;4.40;;
8881;SDS011;4477;48.736;9.176;2023-11-19T00:18:20;5.60;;;5.00;;
8881;SDS011;4477;48.736;9.176;2023-11-19T00:20:47;6.50;;;4.80;;
8881;SDS011;4477;48.736;9.176;2023-11-19T00:23:14;6.37;;;4.30;;
8881;SDS011;4477;48.736;9.176;2023-11-19T00:25:40;5.60;;;4.40;;
8881;SDS011;4477;48.736;9.176;2023-11-19T00:28:08;5.20;;;4.53;;
8881;SDS011;4477;48.736;9.176;2023-11-19T00:30:35;6.93;;;4.63;;
8881;SDS011;4477;48.736;9.176;2023-11-19T00:33:02;6.23;;;4.90;;
8881;SDS011;4477;48.736;9.176;2023-11-19T00:35:29;5.90;;;4.53;;
8881;SDS011;4477;48.736;9.176;2023-11-19T00:37:56;6.60;;;4.90;;
8881;SDS011;4477;48.736;9.176;2023-11-19T00:40:23;4.70;;;4.20;;
8881;SDS011;4477;48.736;9.176;2023-11-19T00:42:50;5.27;;;4.53;;
8881;SDS011;4477;48.736;9.176;2023-11-19T00:45:18;7.13;;;4.90;;
8881;SDS011;4477;48.736;9.176;2023-11-19T00:47:45;6.20;;;5.17;;
8881;SDS011;4477;48.736;9.176;2023-11-19T00:50:12;5.60;;;4.60;;
8881;SDS011;4477;48.736;9.176;2023-11-19T00:52:38;6.20;;;4.87;;
8881;SDS011;4477;48.736;9.176;2023-11-19T00:55:06;6.30;;;4.80;;
8881;SDS011;4477;48.736;9.176;2023-11-19T00:57:33;6.20;;;4.40;;
8881;SDS011;4477;48.736;9.176;2023-11-19T01:00:00;4.93;;;4.00;;
8881;SDS011;4477;48.736;9.176;2023-11-19T01:02:33;4.77;;;4.10;;
8881;SDS011;4477;48.736;9.176;2023-11-19T01:05:00;6.17;;;4.17;;
8881;SDS011;4477;48.736;9.176;2023-11-19T01:07:27;5.63;;;3.83;;
8881;SDS011;4477;48.736;9.176;2023-11-19T01:09:54;5.77;;;4.03;;
8881;SDS011;4477;48.736;9.176;2023-11-19T01:12:21;4.37;;;3.90;;
8881;SDS011;4477;48.736;9.176;2023-11-19T01:14:48;4.03;;;3.37;;
8881;SDS011;4477;48.736;9.176;2023-11-19T01:17:14;4.40;;;3.70;;
8881;SDS011;4477;48.736;9.176;2023-11-19T01:19:42;6.93;;;3.60;;
8881;SDS011;4477;48.736;9.176;2023-11-19T01:22:09;5.70;;;4.00;;
8881;SDS011;4477;48.736;9.176;2023-11-19T01:24:36;6.17;;;3.67;;
8881;SDS011;4477;48.736;9.176;2023-11-19T01:27:03;3.83;;;3.40;;
8881;SDS011;4477;48.736;9.176;2023-11-19T01:29:30;3.67;;;3.00;;
8881;SDS011;4477;48.736;9.176;2023-11-19T01:31:56;5.00;;;3.07;;
8881;SDS011;4477;48.736;9.176;2023-11-19T01:34:23;4.30;;;3.00;;
8881;SDS011;4477;48.736;9.176;2023-11-19T01:36:51;3.07;;;2.40;;
8881;SDS011;4477;48.736;9.176;2023-11-19T01:39:18;4.17;;;2.50;;
8881;SDS011;4477;48.736;9.176;2023-11-19T01:41:46;2.27;;;2.07;;
8881;SDS011;4477;48.736;9.176;2023-11-19T01:44:13;2.70;;;2.17;;
8881;SDS011;4477;48.736;9.176;2023-11-19T01:46:40;2.53;;;2.00;;
8881;SDS011;4477;48.736;9.176;2023-11-19T01:49:10;2.07;;;1.90;;
8881;SDS011;4477;48.736;9.176;2023-11-19T01:51:38;1.90;;;1.60;;
8881;SDS011;4477;48.736;9.176;2023-11-19T01:54:07;1.73;;;1.30;;
8881;SDS011;4477;48.736;9.176;2023-11-19T01:56:34;2.00;;;1.20;;
8881;SDS011;4477;48.736;9.176;2023-11-19T01:59:03;1.10;;;1.00;;
8881;SDS011;4477;48.736;9.176;2023-11-19T02:01:30;1.03;;;0.93;;
8881;SDS011;4477;48.736;9.176;2023-11-19T02:04:01;1.63;;;1.10;;
8881;SDS011;4477;48.736;9.176;2023-11-19T02:06:27;1.23;;;1.13;;
8881;SDS011;4477;48.736;9.176;2023-11-19T02:08:54;1.10;;;1.00;;
8881;SDS011;4477;48.736;9.176;2023-11-19T02:11:23;1.10;;;1.00;;
8881;SDS011;4477;48.736;9.176;2023-11-19T02:13:54;2.10;;;1.00;;
8881;SDS011;4477;48.736;9.176;2023-11-19T02:16:21;1.00;;;0.90;;
8881;SDS011;4477;48.736;9.176;2023-11-19T02:18:48;2.90;;;1.00;;
8881;SDS011;4477;48.736;9.176;2023-11-19T02:21:15;1.57;;;0.60;;
8881;SDS011;4477;48.736;9.176;2023-11-19T02:23:43;1.37;;;0.90;;
8881;SDS011;4477;48.736;9.176;2023-11-19T02:26:12;0.90;;;0.60;;
8881;SDS011;4477;48.736;9.176;2023-11-19T02:28:45;1.07;;;0.63;;
8881;SDS011;4477;48.736;9.176;2023-11-19T02:31:12;0.50;;;0.50;;
8881;SDS011;4477;48.736;9.176;2023-11-19T02:33:39;0.43;;;0.43;;
8881;SDS011;4477;48.736;9.176;2023-11-19T02:36:07;0.60;;;0.40;;
8881;SDS011;4477;48.736;9.176;2023-11-19T02:38:35;0.43;;;0.40;;
8881;SDS011;4477;48.736;9.176;2023-11-19T02:41:03;0.70;;;0.43;;
8881;SDS011;4477;48.736;9.176;2023-11-19T02:43:31;0.57;;;0.40;;
8881;SDS011;4477;48.736;9.176;2023-11-19T02:46:00;0.30;;;0.30;;
8881;SDS011;4477;48.736;9.176;2023-11-19T02:48:27;0.50;;;0.40;;
8881;SDS011;4477;48.736;9.176;2023-11-19T02:50:55;0.40;;;0.40;;
8881;SDS011;4477;48.736;9.176;2023-11-19T02:53:23;0.67;;;0.40;;
8881;SDS011;4477;48.736;9.176;2023-11-19T02:55:52;0.30;;;0.27;;
8881;SDS011;4477;48.736;9.176;2023-11-19T02:58:26;0.50;;;0.30;;
8881;SDS011;4477;48.736;9.176;2023-11-19T03:00:53;0.40;;;0.40;;
8881;SDS011;4477;48.736;9.176;2023-11-19T03:03:24;1.10;;;0.50;;
8881;SDS011;4477;48.736;9.176;2023-11-19T03:05:55;0.80;;;0.40;;
8881;SDS011;4477;48.736;9.176;2023-11-19T03:08:22;0.47;;;0.33;;
8881;SDS011;4477;48.736;9.176;2023-11-19T03:10:49;0.90;;;0.40;;
8881;SDS011;4477;48.736;9.176;2023-11-19T03:13:16;0.40;;;0.40;;
8881;SDS011;4477;48.736;9.176;2023-11-19T03:15:43;1.40;;;0.30;;
8881;SDS011;4477;48.736;9.176;2023-11-19T03:18:10;0.93;;;0.40;;
8881;SDS011;4477;48.736;9.176;2023-11-19T03:20:39;0.40;;;0.40;;
8881;SDS011;4477;48.736;9.176;2023-11-19T03:23:06;0.30;;;0.30;;
8881;SDS011;4477;48.736;9.176;2023-11-19T03:25:32;0.40;;;0.40;;
8881;SDS011;4477;48.736;9.176;2023-11-19T03:28:00;0.40;;;0.40;;
8881;SDS011;4477;48.736;9.176;2023-11-19T03:30:28;0.37;;;0.30;;
8881;SDS011;4477;48.736;9.176;2023-11-19T03:32:55;0.60;;;0.40;;
8881;SDS011;4477;48.736;9.176;2023-11-19T03:35:23;0.80;;;0.40;;
8881;SDS011;4477;48.736;9.176;2023-11-19T03:37:51;0.70;;;0.40;;
8881;SDS011;4477;48.736;9.176;2023-11-19T03:40:18;0.40;;;0.40;;
8881;SDS011;4477;48.736;9.176;2023-11-19T03:42:45;0.73;;;0.47;;
8881;SDS011;4477;48.736;9.176;2023-11-19T03:45:12;1.10;;;0.50;;
8881;SDS011;4477;48.736;9.176;2023-11-19T03:47:39;0.30;;;0.30;;
8881;SDS011;4477;48.736;9.176;2023-11-19T03:50:06;0.30;;;0.30;;
8881;SDS011;4477;48.736;9.176;2023-11-19T03:52:34;0.40;;;0.40;;
8881;SDS011;4477;48.736;9.176;2023-11-19T03:55:02;0.50;;;0.40;;
8881;SDS011;4477;48.736;9.176;2023-11-19T03:57:30;1.23;;;0.50;;
8881;SDS011;4477;48.736;9.176;2023-11-19T03:59:57;0.57;;;0.57;;
8881;SDS011;4477;48.736;9.176;2023-11-19T04:02:24;0.40;;;0.30;;
8881;SDS011;4477;48.736;9.176;2023-11-19T04:04:53;0.80;;;0.60;;
8881;SDS011;4477;48.736;9.176;2023-11-19T04:07:21;0.77;;;0.30;;
8881;SDS011;4477;48.736;9.176;2023-11-19T04:09:48;0.43;;;0.33;;
8881;SDS011;4477;48.736;9.176;2023-11-19T04:12:16;0.60;;;0.40;;
8881;SDS011;4477;48.736;9.176;2023-11-19T04:14:43;0.60;;;0.40;;
8881;SDS011;4477;48.736;9.176;2023-11-19T04:17:10;0.30;;;0.20;;
8881;SDS011;4477;48.736;9.176;2023-11-19T04:19:36;0.30;;;0.30;;
8881;SDS011;4477;48.736;9.176;2023-11-19T04:22:06;0.40;;;0.30;;
8881;SDS011;4477;48.736;9.176;2023-11-19T04:24:33;0.30;;;0.30;;
8881;SDS011;4477;48.736;9.176;2023-11-19T04:27:00;1.70;;;0.37;;
8881;SDS011;4477;48.736;9.176;2023-11-19T04:29:28;0.40;;;0.30;;
8881;SDS011;4477;48.736;9.176;2023-11-19T04:31:56;0.97;;;0.30;;
8881;SDS011;4477;48.736;9.176;2023-11-19T04:34:22;0.27;;;0.27;;
8881;SDS011;4477;48.736;9.176;2023-11-19T04:36:50;0.40;;;0.20;;
8881;SDS011;4477;48.736;9.176;2023-11-19T04:39:16;0.60;;;0.30;;
8881;SDS011;4477;48.736;9.176;2023-11-19T04:41:47;1.63;;;0.30;;
8881;SDS011;4477;48.736;9.176;2023-11-19T04:44:14;0.40;;;0.37;;
8881;SDS011;4477;48.736;9.176;2023-11-19T04:46:44;0.37;;;0.20;;
8881;SDS011;4477;48.736;9.176;2023-11-19T04:49:11;0.53;;;0.33;;
8881;SDS011;4477;48.736;9.176;2023-11-19T04:51:39;0.30;;;0.30;;
8881;SDS011;4477;48.736;9.176;2023-11-19T04:54:06;1.07;;;0.40;;
8881;SDS011;4477;48.736;9.176;2023-11-19T04:56:34;0.33;;;0.30;;
8881;SDS011;4477;48.736;9.176;2023-11-19T04:59:01;0.30;;;0.30;;
8881;SDS011;4477;48.736;9.176;2023-11-19T05:01:28;0.40;;;0.40;;
8881;SDS011;4477;48.736;9.176;2023-11-19T05:03:56;0.83;;;0.37;;
8881;SDS011;4477;48.736;9.176;2023-11-19T05:06:25;0.30;;;0.30;;
8881;SDS011;4477;48.736;9.176;2023-11-19T05:08:53;0.37;;;0.37;;
8881;SDS011;4477;48.736;9.176;2023-11-19T05:11:20;0.80;;;0.40;;
8881;SDS011;4477;48.736;9.176;2023-11-19T05:13:47;2.00;;;0.40;;
8881;SDS011;4477;48.736;9.176;2023-11-19T05:16:14;0.60;;;0.47;;
8881;SDS011;4477;48.736;9.176;2023-11-19T05:18:40;0.47;;;0.40;;
8881;SDS011;4477;48.736;9.176;2023-11-19T05:21:09;0.40;;;0.40;;
8881;SDS011;4477;48.736;9.176;2023-11-19T05:23:36;0.87;;;0.47;;
8881;SDS011;4477;48.736;9.176;2023-11-19T05:26:03;1.63;;;0.40;;
8881;SDS011;4477;48.736;9.176;2023-11-19T05:28:30;0.40;;;0.40;;
8881;SDS011;4477;48.736;9.176;2023-11-19T05:30:57;0.60;;;0.47;;
8881;SDS011;4477;48.736;9.176;2023-11-19T05:33:23;0.60;;;0.50;;
8881;SDS011;4477;48.736;9.176;2023-11-19T05:35:50;0.53;;;0.53;;
8881;SDS011;4477;48.736;9.176;2023-11-19T05:38:18;0.70;;;0.40;;
8881;SDS011;4477;48.736;9.176;2023-11-19T05:40:46;0.50;;;0.40;;
8881;SDS011;4477;48.736;9.176;2023-11-19T05:43:14;0.47;;;0.40;;
8881;SDS011;4477;48.736;9.176;2023-11-19T05:45:42;0.43;;;0.33;;
8881;SDS011;4477;48.736;9.176;2023-11-19T05:48:09;0.80;;;0.43;;
8881;SDS011;4477;48.736;9.176;2023-11-19T05:50:36;0.67;;;0.40;;
8881;SDS011;4477;48.736;9.176;2023-11-19T05:53:03;0.97;;;0.40;;
8881;SDS011;4477;48.736;9.176;2023-11-19T05:55:35;1.07;;;0.57;;
8881;SDS011;4477;48.736;9.176;2023-11-19T05:58:09;0.47;;;0.47;;
8881;SDS011;4477;48.736;9.176;2023-11-19T06:00:37;0.40;;;0.40;;
8881;SDS011;4477;48.736;9.176;2023-11-19T06:03:04;0.50;;;0.50;;
8881;SDS011;4477;48.736;9.176;2023-11-19T06:05:31;1.73;;;0.50;;
8881;SDS011;4477;48.736;9.176;2023-11-19T06:07:58;1.40;;;0.50;;
8881;SDS011;4477;48.736;9.176;2023-11-19T06:10:24;0.53;;;0.53;;
8881;SDS011;4477;48.736;9.176;2023-11-19T06:12:57;0.70;;;0.47;;
8881;SDS011;4477;48.736;9.176;2023-11-19T06:15:24;0.60;;;0.50;;
8881;SDS011;4477;48.736;9.176;2023-11-19T06:17:51;0.40;;;0.40;;
8881;SDS011;4477;48.736;9.176;2023-11-19T06:20:18;0.57;;;0.50;;
8881;SDS011;4477;48.736;9.176;2023-11-19T06:22:45;0.47;;;0.40;;
8881;SDS011;4477;48.736;9.176;2023-11-19T06:25:12;0.33;;;0.33;;
8881;SDS011;4477;48.736;9.176;2023-11-19T06:27:40;0.30;;;0.30;;
8881;SDS011;4477;48.736;9.176;2023-11-19T06:30:08;0.50;;;0.50;;
8881;SDS011;4477;48.736;9.176;2023-11-19T06:32:36;1.90;;;0.40;;
8881;SDS011;4477;48.736;9.176;2023-11-19T06:35:03;0.50;;;0.50;;
8881;SDS011;4477;48.736;9.176;2023-11-19T06:37:31;0.30;;;0.30;;
8881;SDS011;4477;48.736;9.176;2023-11-19T06:39:58;0.40;;;0.40;;
8881;SDS011;4477;48.736;9.176;2023-11-19T06:42:25;0.50;;;0.50;;
8881;SDS011;4477;48.736;9.176;2023-11-19T06:44:52;0.70;;;0.67;;
8881;SDS011;4477;48.736;9.176;2023-11-19T06:47:20;0.70;;;0.70;;
8881;SDS011;4477;48.736;9.176;2023-11-19T06:49:47;0.50;;;0.50;;
8881;SDS011;4477;48.736;9.176;2023-11-19T06:52:13;0.70;;;0.60;;
8881;SDS011;4477;48.736;9.176;2023-11-19T06:54:42;1.43;;;0.67;;
8881;SDS011;4477;48.736;9.176;2023-11-19T06:57:10;0.60;;;0.60;;
8881;SDS011;4477;48.736;9.176;2023-11-19T06:59:37;1.00;;;0.63;;
8881;SDS011;4477;48.736;9.176;2023-11-19T07:02:04;0.47;;;0.47;;
8881;SDS011;4477;48.736;9.176;2023-11-19T07:04:32;1.20;;;0.80;;
8881;SDS011;4477;48.736;9.176;2023-11-19T07:06:59;0.67;;;0.53;;
8881;SDS011;4477;48.736;9.176;2023-11-19T07:09:26;0.70;;;0.70;;
8881;SDS011;4477;48.736;9.176;2023-11-19T07:11:53;0.53;;;0.50;;
8881;SDS011;4477;48.736;9.176;2023-11-19T07:14:21;0.70;;;0.60;;
8881;SDS011;4477;48.736;9.176;2023-11-19T07:16:48;0.97;;;0.53;;
8881;SDS011;4477;48.736;9.176;2023-11-19T07:19:15;0.50;;;0.50;;
8881;SDS011;4477;48.736;9.176;2023-11-19T07:21:44;0.53;;;0.43;;
8881;SDS011;4477;48.736;9.176;2023-11-19T07:24:11;0.57;;;0.57;;
8881;SDS011;4477;48.736;9.176;2023-11-19T07:26:40;1.43;;;0.50;;
8881;SDS011;4477;48.736;9.176;2023-11-19T07:29:08;0.50;;;0.50;;
8881;SDS011;4477;48.736;9.176;2023-11-19T07:31:35;0.60;;;0.60;;
8881;SDS011;4477;48.736;9.176;2023-11-19T07:34:02;0.80;;;0.80;;
8881;SDS011;4477;48.736;9.176;2023-11-19T07:36:30;0.50;;;0.50;;
8881;SDS011;4477;48.736;9.176;2023-11-19T07:38:58;0.60;;;0.60;;
8881;SDS011;4477;48.736;9.176;2023-11-19T07:41:25;0.50;;;0.50;;
8881;SDS011;4477;48.736;9.176;2023-11-19T07:43:52;0.80;;;0.70;;
8881;SDS011;4477;48.736;9.176;2023-11-19T07:46:19;0.60;;;0.60;;
8881;SDS011;4477;48.736;9.176;2023-11-19T07:48:46;0.60;;;0.57;;
8881;SDS011;4477;48.736;9.176;2023-11-19T07:51:13;0.50;;;0.50;;
8881;SDS011;4477;48.736;9.176;2023-11-19T07:53:41;0.60;;;0.60;;
8881;SDS011;4477;48.736;9.176;2023-11-19T07:56:09;0.63;;;0.60;;
8881;SDS011;4477;48.736;9.176;2023-11-19T07:58:36;0.47;;;0.40;;
8881;SDS011;4477;48.736;9.176;2023-11-19T08:01:03;0.67;;;0.50;;
8881;SDS011;4477;48.736;9.176;2023-11-19T08:03:31;0.30;;;0.30;;
8881;SDS011;4477;48.736;9.176;2023-11-19T08:05:59;0.70;;;0.60;;
8881;SDS011;4477;48.736;9.176;2023-11-19T08:08:26;1.23;;;0.50;;
8881;SDS011;4477;48.736;9.176;2023-11-19T08:10:54;0.50;;;0.50;;
8881;SDS011;4477;48.736;9.176;2023-11-19T08:13:23;0.90;;;0.47;;
8881;SDS011;4477;48.736;9.176;2023-11-19T08:15:50;1.00;;;0.40;;
8881;SDS011;4477;48.736;9.176;2023-11-19T08:18:16;0.80;;;0.43;;
8881;SDS011;4477;48.736;9.176;2023-11-19T08:20:44;1.00;;;0.50;;
8881;SDS011;4477;48.736;9.176;2023-11-19T08:23:14;0.70;;;0.50;;
8881;SDS011;4477;48.736;9.176;2023-11-19T08:25:40;0.53;;;0.50;;
8881;SDS011;4477;48.736;9.176;2023-11-19T08:28:07;0.47;;;0.43;;
8881;SDS011;4477;48.736;9.176;2023-11-19T08:30:35;0.60;;;0.40;;
8881;SDS011;4477;48.736;9.176;2023-11-19T08:33:02;0.40;;;0.40;;
8881;SDS011;4477;48.736;9.176;2023-11-19T08:35:30;0.53;;;0.53;;
8881;SDS011;4477;48.736;9.176;2023-11-19T08:37:57;0.97;;;0.50;;
8881;SDS011;4477;48.736;9.176;2023-11-19T08:40:25;0.30;;;0.30;;
8881;SDS011;4477;48.736;9.176;2023-11-19T08:42:52;0.60;;;0.50;;
8881;SDS011;4477;48.736;9.176;2023-11-19T08:45:18;1.97;;;0.40;;
8881;SDS011;4477;48.736;9.176;2023-11-19T08:47:47;0.40;;;0.30;;
8881;SDS011;4477;48.736;9.176;2023-11-19T08:50:13;0.50;;;0.50;;
8881;SDS011;4477;48.736;9.176;2023-11-19T08:52:40;0.67;;;0.50;;
8881;SDS011;4477;48.736;9.176;2023-11-19T08:55:07;3.50;;;0.60;;
8881;SDS011;4477;48.736;9.176;2023-11-19T08:57:35;1.27;;;0.70;;
8881;SDS011;4477;48.736;9.176;2023-11-19T09:00:02;1.13;;;0.50;;
8881;SDS011;4477;48.736;9.176;2023-11-19T09:02:32;0.67;;;0.50;;
8881;SDS011;4477;48.736;9.176;2023-11-19T09:05:00;3.57;;;2.50;;
8881;SDS011;4477;48.736;9.176;2023-11-19T09:07:28;3.73;;;2.93;;
8881;SDS011;4477;48.736;9.176;2023-11-19T09:09:54;8.57;;;4.23;;
8881;SDS011;4477;48.736;9.176;2023-11-19T09:12:21;3.77;;;2.97;;
8881;SDS011;4477;48.736;9.176;2023-11-19T09:14:48;7.37;;;5.00;;
8881;SDS011;4477;48.736;9.176;2023-11-19T09:17:15;2.73;;;1.80;;
8881;SDS011;4477;48.736;9.176;2023-11-19T09:19:43;1.70;;;1.40;;
8881;SDS011;4477;48.736;9.176;2023-11-19T09:22:11;1.30;;;0.97;;
8881;SDS011;4477;48.736;9.176;2023-11-19T09:24:38;1.47;;;0.97;;
8881;SDS011;4477;48.736;9.176;2023-11-19T09:27:04;1.00;;;0.50;;
8881;SDS011;4477;48.736;9.176;2023-11-19T09:29:31;1.43;;;0.50;;
8881;SDS011;4477;48.736;9.176;2023-11-19T09:31:58;2.50;;;0.50;;
8881;SDS011;4477;48.736;9.176;2023-11-19T09:34:25;2.10;;;0.90;;
8881;SDS011;4477;48.736;9.176;2023-11-19T09:36:53;1.20;;;0.73;;
8881;SDS011;4477;48.736;9.176;2023-11-19T09:39:21;1.60;;;0.63;;
8881;SDS011;4477;48.736;9.176;2023-11-19T09:41:47;0.87;;;0.60;;
8881;SDS011;4477;48.736;9.176;2023-11-19T09:44:14;1.10;;;0.70;;
8881;SDS011;4477;48.736;9.176;2023-11-19T09:46:43;0.70;;;0.43;;
8881;SDS011;4477;48.736;9.176;2023-11-19T09:49:11;1.17;;;0.60;;
8881;SDS011;4477;48.736;9.176;2023-11-19T09:51:40;0.93;;;0.53;;
8881;SDS011;4477;48.736;9.176;2023-11-19T09:54:07;1.03;;;0.33;;
8881;SDS011;4477;48.736;9.176;2023-11-19T09:56:36;0.80;;;0.50;;
8881;SDS011;4477;48.736;9.176;2023-11-19T09:59:05;0.70;;;0.60;;
8881;SDS011;4477;48.736;9.176;2023-11-19T10:01:31;0.60;;;0.40;;
8881;SDS011;4477;48.736;9.176;2023-11-19T10:04:00;0.70;;;0.50;;
8881;SDS011;4477;48.736;9.176;2023-11-19T10:06:28;1.37;;;0.40;;
8881;SDS011;4477;48.736;9.176;2023-11-19T10:08:55;0.40;;;0.40;;
8881;SDS011;4477;48.736;9.176;2023-11-19T10:11:22;0.80;;;0.30;;
8881;SDS011;4477;48.736;9.176;2023-11-19T10:13:51;0.87;;;0.37;;
8881;SDS011;4477;48.736;9.176;2023-11-19T10:16:19;0.70;;;0.40;;
8881;SDS011;4477;48.736;9.176;2023-11-19T10:18:46;1.07;;;0.40;;
8881;SDS011;4477;48.736;9.176;2023-11-19T10:21:17;1.10;;;0.50;;
8881;SDS011;4477;48.736;9.176;2023-11-19T10:23:47;0.80;;;0.47;;
8881;SDS011;4477;48.736;9.176;2023-11-19T10:26:16;2.10;;;0.50;;
8881;SDS011;4477;48.736;9.176;2023-11-19T10:28:43;0.40;;;0.40;;
8881;SDS011;4477;48.736;9.176;2023-11-19T10:31:12;1.50;;;0.40;;
8881;SDS011;4477;48.736;9.176;2023-11-19T10:33:39;0.43;;;0.43;;
8881;SDS011;4477;48.736;9.176;2023-11-19T10:36:06;0.80;;;0.50;;
8881;SDS011;4477;48.736;9.176;2023-11-19T10:38:33;0.97;;;0.47;;
8881;SDS011;4477;48.736;9.176;2023-11-19T10:41:00;0.70;;;0.47;;
8881;SDS011;4477;48.736;9.176;2023-11-19T10:43:27;1.43;;;0.60;;
8881;SDS011;4477;48.736;9.176;2023-11-19T10:45:53;1.73;;;0.70;;
8881;SDS011;4477;48.736;9.176;2023-11-19T10:48:36;1.27;;;0.60;;
8881;SDS011;4477;48.736;9.176;2023-11-19T10:51:03;2.07;;;0.60;;
8881;SDS011;4477;48.736;9.176;2023-11-19T10:53:33;0.60;;;0.40;;
8881;SDS011;4477;48.736;9.176;2023-11-19T10:56:04;0.70;;;0.40;;
8881;SDS011;4477;48.736;9.176;2023-11-19T10:58:36;0.57;;;0.33;;
8881;SDS011;4477;48.736;9.176;2023-11-19T11:01:06;1.50;;;0.47;;
8881;SDS011;4477;48.736;9.176;2023-11-19T11:03:39;0.70;;;0.30;;
8881;SDS011;4477;48.736;9.176;2023-11-19T11:06:06;0.40;;;0.20;;
8881;SDS011;4477;48.736;9.176;2023-11-19T11:08:35;1.43;;;0.27;;
8881;SDS011;4477;48.736;9.176;2023-11-19T11:11:04;0.40;;;0.27;;
8881;SDS011;4477;48.736;9.176;2023-11-19T11:13:32;0.27;;;0.20;;
8881;SDS011;4477;48.736;9.176;2023-11-19T11:16:00;0.43;;;0.40;;
8881;SDS011;4477;48.736;9.176;2023-11-19T11:18:29;0.47;;;0.30;;
8881;SDS011;4477;48.736;9.176;2023-11-19T11:20:59;0.83;;;0.40;;
8881;SDS011;4477;48.736;9.176;2023-11-19T11:23:37;1.70;;;0.60;;
8881;SDS011;4477;48.736;9.176;2023-11-19T11:26:31;0.80;;;0.40;;
8881;SDS011;4477;48.736;9.176;2023-11-19T11:29:10;0.33;;;0.30;;
8881;SDS011;4477;48.736;9.176;2023-11-19T11:31:48;1.10;;;0.60;;
8881;SDS011;4477;48.736;9.176;2023-11-19T11:34:34;0.77;;;0.40;;
8881;SDS011;4477;48.736;9.176;2023-11-19T11:37:14;1.90;;;0.50;;
8881;SDS011;4477;48.736;9.176;2023-11-19T11:39:45;1.23;;;0.47;;
8881;SDS011;4477;48.736;9.176;2023-11-19T11:42:34;1.23;;;0.40;;
8881;SDS011;4477;48.736;9.176;2023-11-19T11:45:02;0.53;;;0.43;;
8881;SDS011;4477;48.736;9.176;2023-11-19T11:50:46;1.30;;;0.50;;
8881;SDS011;4477;48.736;9.176;2023-11-19T11:53:19;0.87;;;0.37;;
8881;SDS011;4477;48.736;9.176;2023-11-19T11:55:53;0.83;;;0.40;;
8881;SDS011;4477;48.736;9.176;2023-11-19T11:58:29;1.60;;;0.77;;
8881;SDS011;4477;48.736;9.176;2023-11-19T12:01:01;0.80;;;0.50;;
8881;SDS011;4477;48.736;9.176;2023-11-19T12:03:31;0.93;;;0.40;;
8881;SDS011;4477;48.736;9.176;2023-11-19T12:05:59;1.77;;;0.60;;
8881;SDS011;4477;48.736;9.176;2023-11-19T12:08:28;1.03;;;0.30;;
8881;SDS011;4477;48.736;9.176;2023-11-19T12:10:56;1.10;;;0.43;;
8881;SDS011;4477;48.736;9.176;2023-11-19T12:13:24;2.03;;;0.40;;
8881;SDS011;4477;48.736;9.176;2023-11-19T12:16:08;1.37;;;0.80;;
8881;SDS011;4477;48.736;9.176;2023-11-19T12:18:36;2.33;;;0.60;;
8881;SDS011;4477;48.736;9.176;2023-11-19T12:21:06;1.20;;;0.40;;
8881;SDS011;4477;48.736;9.176;2023-11-19T12:23:36;0.67;;;0.37;;
8881;SDS011;4477;48.736;9.176;2023-11-19T12:26:20;0.90;;;0.50;;
8881;SDS011;4477;48.736;9.176;2023-11-19T12:28:57;3.23;;;0.70;;
8881;SDS011;4477;48.736;9.176;2023-11-19T12:31:24;1.50;;;0.70;;
8881;SDS011;4477;48.736;9.176;2023-11-19T12:33:51;0.57;;;0.40;;
8881;SDS011;4477;48.736;9.176;2023-11-19T12:36:18;0.90;;;0.50;;
8881;SDS011;4477;48.736;9.176;2023-11-19T12:38:46;0.60;;;0.30;;
8881;SDS011;4477;48.736;9.176;2023-11-19T12:41:13;0.47;;;0.40;;
8881;SDS011;4477;48.736;9.176;2023-11-19T12:43:45;2.20;;;0.50;;
8881;SDS011;4477;48.736;9.176;2023-11-19T12:46:18;2.73;;;0.50;;
8881;SDS011;4477;48.736;9.176;2023-11-19T12:48:46;1.43;;;0.50;;
8881;SDS011;4477;48.736;9.176;2023-11-19T12:51:13;0.83;;;0.50;;
8881;SDS011;4477;48.736;9.176;2023-11-19T12:53:50;1.20;;;0.50;;
8881;SDS011;4477;48.736;9.176;2023-11-19T12:56:19;1.93;;;0.60;;
8881;SDS011;4477;48.736;9.176;2023-11-19T12:58:46;1.07;;;0.60;;
8881;SDS011;4477;48.736;9.176;2023-11-19T13:01:15;0.70;;;0.50;;
8881;SDS011;4477;48.736;9.176;2023-11-19T13:03:43;2.73;;;0.63;;
8881;SDS011;4477;48.736;9.176;2023-11-19T13:06:11;0.60;;;0.50;;
8881;SDS011;4477;48.736;9.176;2023-11-19T13:08:41;1.77;;;0.70;;
8881;SDS011;4477;48.736;9.176;2023-11-19T13:11:10;0.50;;;0.33;;
8881;SDS011;4477;48.736;9.176;2023-11-19T13:13:54;1.37;;;0.50;;
8881;SDS011;4477;48.736;9.176;2023-11-19T13:16:21;1.37;;;0.40;;
8881;SDS011;4477;48.736;9.176;2023-11-19T13:18:48;1.00;;;0.30;;
8881;SDS011;4477;48.736;9.176;2023-11-19T13:21:15;1.07;;;0.30;;
8881;SDS011;4477;48.736;9.176;2023-11-19T13:23:42;1.13;;;0.67;;
8881;SDS011;4477;48.736;9.176;2023-11-19T13:26:10;0.63;;;0.40;;
8881;SDS011;4477;48.736;9.176;2023-11-19T13:28:38;0.80;;;0.40;;
8881;SDS011;4477;48.736;9.176;2023-11-19T13:31:05;1.80;;;0.50;;
8881;SDS011;4477;48.736;9.176;2023-11-19T13:33:32;1.23;;;0.60;;
8881;SDS011;4477;48.736;9.176;2023-11-19T13:35:59;2.57;;;0.47;;
8881;SDS011;4477;48.736;9.176;2023-11-19T13:38:30;0.80;;;0.63;;
8881;SDS011;4477;48.736;9.176;2023-11-19T13:40:57;0.77;;;0.40;;
8881;SDS011;4477;48.736;9.176;2023-11-19T13:43:26;2.27;;;0.70;;
8881;SDS011;4477;48.736;9.176;2023-11-19T13:45:53;3.53;;;2.03;;
8881;SDS011;4477;48.736;9.176;2023-11-19T13:48:21;1.23;;;0.60;;
8881;SDS011;4477;48.736;9.176;2023-11-19T13:50:47;1.80;;;0.60;;
8881;SDS011;4477;48.736;9.176;2023-11-19T13:53:14;1.20;;;0.80;;
8881;SDS011;4477;48.736;9.176;2023-11-19T13:55:41;1.10;;;0.63;;
8881;SDS011;4477;48.736;9.176;2023-11-19T13:58:08;1.27;;;0.50;;
8881;SDS011;4477;48.736;9.176;2023-11-19T14:00:36;2.33;;;0.60;;
8881;SDS011;4477;48.736;9.176;2023-11-19T14:03:03;1.20;;;0.60;;
8881;SDS011;4477;48.736;9.176;2023-11-19T14:05:30;0.80;;;0.57;;
8881;SDS011;4477;48.736;9.176;2023-11-19T14:07:57;1.27;;;0.50;;
8881;SDS011;4477;48.736;9.176;2023-11-19T14:10:24;1.60;;;0.60;;
8881;SDS011;4477;48.736;9.176;2023-11-19T14:12:51;0.60;;;0.37;;
8881;SDS011;4477;48.736;9.176;2023-11-19T14:15:18;1.60;;;0.47;;
8881;SDS011;4477;48.736;9.176;2023-11-19T14:17:46;1.43;;;0.50;;
8881;SDS011;4477;48.736;9.176;2023-11-19T14:20:13;0.67;;;0.53;;
8881;SDS011;4477;48.736;9.176;2023-11-19T14:22:40;0.50;;;0.40;;
8881;SDS011;4477;48.736;9.176;2023-11-19T14:25:09;1.07;;;0.60;;
8881;SDS011;4477;48.736;9.176;2023-11-19T14:27:36;0.60;;;0.40;;
8881;SDS011;4477;48.736;9.176;2023-11-19T14:30:04;1.10;;;0.50;;
8881;SDS011;4477;48.736;9.176;2023-11-19T14:32:33;1.53;;;1.03;;
8881;SDS011;4477;48.736;9.176;2023-11-19T14:35:01;1.43;;;0.83;;
8881;SDS011;4477;48.736;9.176;2023-11-19T14:37:28;1.30;;;0.70;;
8881;SDS011;4477;48.736;9.176;2023-11-19T14:39:56;2.03;;;0.80;;
8881;SDS011;4477;48.736;9.176;2023-11-19T14:42:24;2.43;;;1.20;;
8881;SDS011;4477;48.736;9.176;2023-11-19T14:44:51;2.00;;;1.00;;
8881;SDS011;4477;48.736;9.176;2023-11-19T14:47:18;1.00;;;0.60;;
8881;SDS011;4477;48.736;9.176;2023-11-19T14:49:45;1.50;;;0.53;;
8881;SDS011;4477;48.736;9.176;2023-11-19T14:52:13;1.23;;;0.60;;
8881;SDS011;4477;48.736;9.176;2023-11-19T14:54:40;1.10;;;0.70;;
8881;SDS011;4477;48.736;9.176;2023-11-19T14:57:07;1.83;;;0.67;;
8881;SDS011;4477;48.736;9.176;2023-11-19T14:59:34;1.50;;;1.10;;
8881;SDS011;4477;48.736;9.176;2023-11-19T15:02:01;1.47;;;0.93;;
8881;SDS011;4477;48.736;9.176;2023-11-19T15:04:28;2.20;;;0.67;;
8881;SDS011;4477;48.736;9.176;2023-11-19T15:06:57;1.47;;;0.87;;
8881;SDS011;4477;48.736;9.176;2023-11-19T15:09:26;1.20;;;0.70;;
8881;SDS011;4477;48.736;9.176;2023-11-19T15:11:53;0.50;;;0.50;;
8881;SDS011;4477;48.736;9.176;2023-11-19T15:14:20;1.90;;;0.50;;
8881;SDS011;4477;48.736;9.176;2023-11-19T15:16:47;1.73;;;0.70;;
8881;SDS011;4477;48.736;9.176;2023-11-19T15:19:16;0.67;;;0.50;;
8881;SDS011;4477;48.736;9.176;2023-11-19T15:21:45;1.97;;;0.70;;
8881;SDS011;4477;48.736;9.176;2023-11-19T15:24:12;1.17;;;0.57;;